Thursday, August 25, 2016
01:04 UTC
  |  Log In   |  Register Free
Airport Search:

Lewis University Airport
(KLOT)

Lewis University Airport Diagram
No Airport Diagram Available

FAA data valid effective Jul 21 2016 - Sep 15 2016 (unless otherwise noted).

 
 
 
 
 
 
 
 
 
 
 
 
 
 
Current Aviation Weather for KLOT

Weather Summary


The most recent METAR observation for LOT was updated at: 12:55 UTC
METAR for LOT is not available. Closest METAR is for
METAR

METAR KLOT 250055Z 25005KT 10SM SCT034 25/21 A2997 RMK AO2 T02510211

METAR KLOT 250035Z 25005KT 10SM SCT032 BKN041 26/21 A2997 RMK AO2 T02600213

METAR KLOT 250015Z 26004KT 10SM BKN029 OVC039 27/22 A2997 RMK AO2 T02650215

METAR KLOT 242355Z 27006KT 10SM SCT029 27/21 A2996 RMK AO2 T02660214 10283 20246

METAR KLOT 242335Z 27005KT 10SM SCT026 27/22 A2996 RMK AO2 T02720215

METAR KLOT 242315Z 27008KT 10SM SCT026 28/22 A2995 RMK AO2 T02750215

METAR KLOT 242255Z 28006KT 10SM CLR 28/22 A2995 RMK AO2 T02780215

METAR KLOT 242235Z 28008KT 10SM SCT025 28/22 A2994 RMK AO2 T02800215

METAR KLOT 242215Z 28010KT 10SM SCT023 SCT032 28/21 A2995 RMK AO2 T02790211

METAR KARR 250052Z 22005KT 10SM CLR 26/22 A2997 RMK AO2 SLP142 T02610222

METAR KC09 250055Z 23003KT 10SM CLR 25/22 A2997 RMK AO2 T02450223

METAR KDKB 250055Z 23005KT 10SM CLR 26/23 A2998 RMK AO2 T02550228

TAF for LOT is not available.
TAF

KMDW - TAF KMDW 242330Z 2500/2524 25008KT P6SM FEW030 SCT250

KMDW - FM250500 24006KT P6SM VCSH SCT035 BKN150

KMDW - FM250700 23004KT P6SM VCTS SCT040CB BKN100

KMDW - TEMPO 2507/2511 3SM TSRA SCT010 BKN025CB

KMDW - FM251300 29007KT P6SM VCSH BKN025

KMDW - FM251900 30009KT P6SM SCT035

KMDW - FM252100 31010KT P6SM SCT150 =

KDPA - TAF KDPA 242330Z 2500/2524 25008KT P6SM FEW030 SCT250

KDPA - FM250500 24006KT P6SM VCSH SCT035 BKN150

KDPA - FM250700 23004KT P6SM VCTS SCT040CB BKN100

KDPA - TEMPO 2507/2511 3SM TSRA SCT010 BKN025CB

KDPA - FM251300 29007KT P6SM VCSH BKN025

KDPA - FM251900 30009KT P6SM SCT035

KDPA - FM252100 31010KT P6SM SCT150 =

KORD - TAF KORD 242330Z 2500/2606 25008KT P6SM FEW030 SCT250

KORD - FM250500 24006KT P6SM VCSH SCT035 BKN150

KORD - FM250700 23004KT P6SM VCTS SCT040CB BKN100

KORD - TEMPO 2507/2511 3SM TSRA SCT010 BKN025CB

KORD - FM251300 29007KT P6SM VCSH BKN025

KORD - FM251900 30009KT P6SM SCT035

KORD - FM252100 31010KT P6SM SCT150

KORD - FM260100 29004KT P6SM FEW150 SCT250 =

KGYY - TAF KGYY 242330Z 2500/2524 25008KT P6SM FEW030 SCT250

KGYY - FM250500 24006KT P6SM VCSH SCT035 BKN150

KGYY - FM250700 23004KT P6SM VCTS SCT040CB BKN100

KGYY - TEMPO 2508/2512 3SM TSRA SCT010 BKN025CB

KGYY - FM251400 32007KT P6SM VCSH OVC025

KGYY - FM251900 01009KT P6SM BKN035

KGYY - FM252100 35010KT P6SM SCT150 =

GlobalAir.com is loading additional information.
 Current Weather at LOT
80.0 F° (26.6 C°)

West winds at 6.9 mph
Pressure:
29.96 in
Humidity:
73%
Wind:
West at 6.9 mph
Dew Point:
70.5 F° (21.4 C°)
Visibility:
10.00 mi
LOT NOAA Radar




Find All Airport Services Find A Hotel Find A Rental Car Find A Golf Course Find A Restaurant $100 Hamburger



Airport Weather Forecast for KLOT

Translated METAR for KLOT (0055 UTC)
METAR:
KLOT 250055Z AUTO Lewis University, Chicago/Romeoville, IL (KLOT). Aug 25, 0055Z, Automated. Wind from 250° at 5 knots, 10 statute miles visibility, Scattered Clouds at 3,400 feet, Temperature 25°C, Dewpoint 21°C, Altimeter is 29.97. Remarks: automated station with precipitation discriminator hourly temp 25.1°C dewpoint 21.1°C
Conditions at:
KLOT (Lewis University, IL) observed 0055 UTC 24 August 2016
Temperature:
80.0 F° (26.6 C°)
Dewpoint:
not reported - refer to area weather report
Pressure:
29.96 Hg
Winds:
not reported
Visibility:
10.00
Ceiling:
at least 12,000 feet AGL
Clouds:
not reported - refer to area weather report
Remarks:
site is un-manned

Translated TAF for TAF for LOT is not available. Refer to local area forecast.
FBO's on the Field
FBO Company Facility Photos Services Transportation Aviation Fuel Prices: Prices include tax
Catering Weather Repair Courtesy Rental Type 100LL JetA JetA+ MOGAS 8087
 
Lewis University Airport

This FBO has not yet been rated
FS:Phillips 66
Last Updated: Aug-04
Login to update fuel prices
SS:
Contact Lewis University AirportMore FBO Information
 
Add another FBO Facility Photos Catering Weather Repair Courtesy Rental Type 100LL JetA JetA+ MOGAS 8087
Services Transportation Aviation Fuel Prices: Prices include tax


model-print
model-print
model-print
model-print